• Join FlightAware (Why Join?)
  • Login
  • US Flag GB Flag 
15:37 EST


 

Airport Tracker/Info


-or-


 

Live Flight TrackerFlight Track Log ✈ RPA3392 ✈ 02-May-2013 ✈ KDCA - KALB

Flight Track Log - Related Links

Times and Time Zones

All times are in EDT time to prevent confusion due to time zone crossing. See the RPA3392 flight status page for this flight to view local times or setup timezone preferences in your user account.

Time Position Orientation Groundspeed Altitude Reporting Facility
EDT Latitude Longitude Course Direction KTS MPH feet Rate Location/Type
22:10 38.8167 -77.0333 83° East 158 182 2,000  Level Potomac TRACON
22:11 38.7500 -77.0167 169° South 256 295 4,100 2,850 Climbing Potomac TRACON
22:12 38.9716 -76.6735 57° Northeast  Level FlightAware Approximate
22:12 38.7667 -76.9333 76° East 261 300 7,700  Level Potomac TRACON
22:13 39.0206 -76.5549 67° East  Level FlightAware Approximate
22:13 38.8000 -76.8667 57° Northeast 283 326 10,900  Level Potomac TRACON
22:14 39.0665 -76.4338 63° Northeast  Level FlightAware Approximate
22:14 38.8492 -76.7750 55° Northeast 316 364 13,400  Level Washington Center
22:15 39.1167 -76.3155 90° East  Level FlightAware Approximate
22:15 38.9000 -76.6825 55° Northeast 316 364 15,900  Level Washington Center
22:16 39.1519 -76.1975 83° East  Level FlightAware Approximate
22:16 38.9531 -76.5844 55° Northeast 321 369 17,900  Level Washington Center
22:18 39.0100 -76.4839 54° Northeast 331 381 20,100 2,231 Climbing Washington Center
22:19 39.0692 -76.3750 55° Northeast 346 398 22,400 1,450 Climbing Washington Center
22:20 39.1283 -76.2686 54° Northeast 359 413 23,000 303 Climbing Washington Center
22:20 39.1622 -76.1403 71° East 359 413 23,000  Level Washington Center
22:21 39.1772 -76.0067 82° East 366 421 23,000 545 Level Washington Center
22:23 39.2006 -75.8728 77° East 371 427 24,100 1,361 Climbing Washington Center
22:23 39.2758 -75.7739 45° Northeast 365 420 25,700 1,525 Climbing Washington Center
22:24 39.3531 -75.6722 45° Northeast 370 426 27,100 1,426 Climbing Washington Center
22:26 39.4322 -75.5700 45° Northeast 389 448 28,600 675 Climbing Washington Center
22:27 39.5836 -75.3772 44° Northeast 416 479 29,000 145 Climbing New York Center
22:28 39.6672 -75.2667 45° Northeast 421 484 29,000  Level New York Center
22:29 39.7467 -75.1475 49° Northeast 427 491 29,000  Level New York Center
22:30 39.8258 -75.0336 48° Northeast 432 497 29,000  Level New York Center
22:31 39.9072 -74.9194 47° Northeast 427 491 29,000  Level New York Center
22:32 39.9992 -74.7947 46° Northeast 432 497 29,000  Level New York Center
22:33 40.0822 -74.6803 46° Northeast 427 491 29,000  Level New York Center
22:34 40.1653 -74.5572 49° Northeast 435 501 29,000  Level New York Center
22:35 40.2658 -74.4783 31° Northeast 435 501 29,000  Level New York Center
22:36 40.3833 -74.4494 11° North 415 478 29,000  Level New York Center
22:37 40.5011 -74.4175 12° North 415 478 29,000  Level New York Center
22:39 40.6875 -74.3669 12° North 419 482 29,000  Level Boston Center
22:40 40.7942 -74.3428 10° North 424 488 29,000  Level Boston Center
22:41 40.9114 -74.3106 12° North 430 495 29,000  Level Boston Center
22:42 41.0286 -74.2808 11° North 430 495 29,000 -450 Level Boston Center
22:43 41.1417 -74.2483 12° North 424 488 28,100 -1,150 Descending Boston Center
22:44 41.2525 -74.2208 11° North 412 474 26,700 -1,050 Descending Boston Center
22:45 41.3572 -74.1878 13° North 397 457 26,000 -700 Descending Boston Center
22:46 41.4619 -74.1575 12° North 392 451 25,300 -1,300 Descending Boston Center
22:47 41.5667 -74.1325 10° North 387 445 23,400 -1,850 Descending Boston Center
22:48 41.6608 -74.1072 11° North 367 422 21,600 -1,800 Descending Boston Center
22:49 41.7469 -74.0650 20° North 339 390 19,800 -1,900 Descending Boston Center
22:50 41.8169 -73.9722 45° Northeast 314 361 17,800 -1,400 Descending Boston Center
22:51 41.8883 -73.9347 21° North 309 356 17,000 -650 Descending Boston Center
22:52 41.9864 -73.9175 North 309 356 16,500 -795 Descending Boston Center
22:52 42.0136 -73.9128 North 313 360 15,900 -1,627 Descending Boston Center
22:53 42.0658 -73.9083 North 311 358 14,900 -1,546 Descending Boston Center
22:54 42.1536 -73.8936 North 305 351 13,400 -1,488 Descending Boston Center
22:55 42.2344 -73.9094 352° North 298 343 11,900 -1,400 Descending Boston Center
22:55 42.2344 -73.9094 352° North 298 343 12,000 -1,091 Climbing Boston Center
22:56 42.3031 -73.9222 352° North 265 305 10,900 -1,304 Descending Boston Center
22:57 42.3781 -73.9297 356° North 269 310 9,500 -1,736 Descending Boston Center
22:58 42.4592 -73.9428 353° North 273 314 7,400 -1,967 Descending Boston Center
22:59 42.5361 -73.9503 356° North 272 313 5,500 -1,636 Descending Boston Center
23:00 42.6111 -73.9578 356° North 275 316 4,100 -1,190 Descending Boston Center
23:01 42.6883 -73.9511 North 276 318 3,100 -738 Descending Boston Center
23:02 42.7553 -73.9444 North 227 261 2,600 -694 Descending Boston Center
23:03 42.8178 -73.9458 359° North 218 251 1,700 -496 Descending Boston Center
23:04 42.8536 -73.9100 36° Northeast 170 196 1,600  Descending Boston Center
23:05 42.8564 -73.8533 86° East 150 173 1,700  Climbing Boston Center
23:06 42.8256 -73.8103 134° Southeast 163 188 1,600 -98 Descending Boston Center